sensor_id;sensor_type;location;lat;lon;timestamp;pressure;altitude;pressure_sealevel;temperature
76583;BMP280;65462;52.148;7.940;2023-06-14T00:00:02;100785.16;;;20.31
76583;BMP280;65462;52.148;7.940;2023-06-14T00:02:29;100782.50;;;20.24
76583;BMP280;65462;52.148;7.940;2023-06-14T00:04:54;100790.53;;;20.24
76583;BMP280;65462;52.148;7.940;2023-06-14T00:07:27;100792.47;;;20.23
76583;BMP280;65462;52.148;7.940;2023-06-14T00:09:58;100787.44;;;20.22
76583;BMP280;65462;52.148;7.940;2023-06-14T00:12:23;100790.13;;;20.18
76583;BMP280;65462;52.148;7.940;2023-06-14T00:14:49;100785.16;;;20.13
76583;BMP280;65462;52.148;7.940;2023-06-14T00:17:14;100791.28;;;20.07
76583;BMP280;65462;52.148;7.940;2023-06-14T00:19:42;100800.91;;;20.08
76583;BMP280;65462;52.148;7.940;2023-06-14T00:22:07;100803.59;;;20.08
76583;BMP280;65462;52.148;7.940;2023-06-14T00:24:32;100802.81;;;20.07
76583;BMP280;65462;52.148;7.940;2023-06-14T00:26:57;100801.59;;;20.05
76583;BMP280;65462;52.148;7.940;2023-06-14T00:29:23;100803.16;;;20.02
76583;BMP280;65462;52.148;7.940;2023-06-14T00:31:48;100801.25;;;20.03
76583;BMP280;65462;52.148;7.940;2023-06-14T00:34:13;100807.75;;;20.02
76583;BMP280;65462;52.148;7.940;2023-06-14T00:36:39;100807.00;;;19.98
76583;BMP280;65462;52.148;7.940;2023-06-14T00:39:04;100802.78;;;19.97
76583;BMP280;65462;52.148;7.940;2023-06-14T00:41:29;100803.53;;;19.94
76583;BMP280;65462;52.148;7.940;2023-06-14T00:43:54;100806.59;;;19.92
76583;BMP280;65462;52.148;7.940;2023-06-14T00:46:21;100821.16;;;19.88
76583;BMP280;65462;52.148;7.940;2023-06-14T00:48:47;100809.28;;;19.85
76583;BMP280;65462;52.148;7.940;2023-06-14T00:51:13;100819.63;;;19.87
76583;BMP280;65462;52.148;7.940;2023-06-14T00:53:39;100813.88;;;19.85
76583;BMP280;65462;52.148;7.940;2023-06-14T00:56:06;100817.69;;;19.84
76583;BMP280;65462;52.148;7.940;2023-06-14T00:58:32;100816.16;;;19.83
76583;BMP280;65462;52.148;7.940;2023-06-14T01:00:57;100820.78;;;19.79
76583;BMP280;65462;52.148;7.940;2023-06-14T01:03:23;100819.22;;;19.74
76583;BMP280;65462;52.148;7.940;2023-06-14T01:05:53;100823.41;;;19.72
76583;BMP280;65462;52.148;7.940;2023-06-14T01:08:33;100828.00;;;19.71
76583;BMP280;65462;52.148;7.940;2023-06-14T01:11:08;100825.69;;;19.66
76583;BMP280;65462;52.148;7.940;2023-06-14T01:13:38;100828.00;;;19.68
76583;BMP280;65462;52.148;7.940;2023-06-14T01:16:05;100823.41;;;19.65
76583;BMP280;65462;52.148;7.940;2023-06-14T01:18:30;100815.72;;;19.63
76583;BMP280;65462;52.148;7.940;2023-06-14T01:20:57;100817.25;;;19.57
76583;BMP280;65462;52.148;7.940;2023-06-14T01:23:23;100828.72;;;19.58
76583;BMP280;65462;52.148;7.940;2023-06-14T01:25:49;100826.78;;;19.51
76583;BMP280;65462;52.148;7.940;2023-06-14T01:28:19;100828.31;;;19.49
76583;BMP280;65462;52.148;7.940;2023-06-14T01:30:52;100833.28;;;19.43
76583;BMP280;65462;52.148;7.940;2023-06-14T01:33:20;100833.28;;;19.40
76583;BMP280;65462;52.148;7.940;2023-06-14T01:35:48;100837.09;;;19.38
76583;BMP280;65462;52.148;7.940;2023-06-14T01:38:14;100835.13;;;19.35
76583;BMP280;65462;52.148;7.940;2023-06-14T01:40:40;100839.34;;;19.33
76583;BMP280;65462;52.148;7.940;2023-06-14T01:43:07;100835.88;;;19.29
76583;BMP280;65462;52.148;7.940;2023-06-14T01:45:33;100839.69;;;19.24
76583;BMP280;65462;52.148;7.940;2023-06-14T01:47:59;100850.00;;;19.22
76583;BMP280;65462;52.148;7.940;2023-06-14T01:50:28;100856.91;;;19.20
76583;BMP280;65462;52.148;7.940;2023-06-14T01:52:54;100846.16;;;19.16
76583;BMP280;65462;52.148;7.940;2023-06-14T01:55:20;100843.84;;;19.11
76583;BMP280;65462;52.148;7.940;2023-06-14T01:57:47;100842.69;;;19.09
76583;BMP280;65462;52.148;7.940;2023-06-14T02:00:13;100841.84;;;19.01
76583;BMP280;65462;52.148;7.940;2023-06-14T02:02:39;100845.31;;;19.02
76583;BMP280;65462;52.148;7.940;2023-06-14T02:05:05;100836.88;;;19.00
76583;BMP280;65462;52.148;7.940;2023-06-14T02:07:30;100843.38;;;18.99
76583;BMP280;65462;52.148;7.940;2023-06-14T02:09:55;100842.16;;;18.93
76583;BMP280;65462;52.148;7.940;2023-06-14T02:12:21;100839.88;;;18.91
76583;BMP280;65462;52.148;7.940;2023-06-14T02:14:46;100841.41;;;18.89
76583;BMP280;65462;52.148;7.940;2023-06-14T02:17:11;100838.72;;;18.89
76583;BMP280;65462;52.148;7.940;2023-06-14T02:19:36;100838.69;;;18.82
76583;BMP280;65462;52.148;7.940;2023-06-14T02:22:02;100840.59;;;18.81
76583;BMP280;65462;52.148;7.940;2023-06-14T02:24:27;100839.03;;;18.80
76583;BMP280;65462;52.148;7.940;2023-06-14T02:26:52;100842.06;;;18.75
76583;BMP280;65462;52.148;7.940;2023-06-14T02:29:18;100846.25;;;18.76
76583;BMP280;65462;52.148;7.940;2023-06-14T02:31:43;100845.09;;;18.74
76583;BMP280;65462;52.148;7.940;2023-06-14T02:34:10;100850.41;;;18.70
76583;BMP280;65462;52.148;7.940;2023-06-14T02:36:35;100851.19;;;18.71
76583;BMP280;65462;52.148;7.940;2023-06-14T02:39:09;100848.13;;;18.69
76583;BMP280;65462;52.148;7.940;2023-06-14T02:41:35;100843.50;;;18.62
76583;BMP280;65462;52.148;7.940;2023-06-14T02:44:01;100850.72;;;18.58
76583;BMP280;65462;52.148;7.940;2023-06-14T02:46:26;100847.25;;;18.54
76583;BMP280;65462;52.148;7.940;2023-06-14T02:48:51;100840.34;;;18.50
76583;BMP280;65462;52.148;7.940;2023-06-14T02:51:17;100839.16;;;18.47
76583;BMP280;65462;52.148;7.940;2023-06-14T02:53:42;100841.44;;;18.45
76583;BMP280;65462;52.148;7.940;2023-06-14T02:56:09;100851.75;;;18.43
76583;BMP280;65462;52.148;7.940;2023-06-14T02:58:36;100853.97;;;18.41
76583;BMP280;65462;52.148;7.940;2023-06-14T03:01:02;100855.16;;;18.40
76583;BMP280;65462;52.148;7.940;2023-06-14T03:03:29;100854.72;;;18.38
76583;BMP280;65462;52.148;7.940;2023-06-14T03:05:55;100862.38;;;18.36
76583;BMP280;65462;52.148;7.940;2023-06-14T03:08:21;100868.88;;;18.35
76583;BMP280;65462;52.148;7.940;2023-06-14T03:10:52;100867.34;;;18.34
76583;BMP280;65462;52.148;7.940;2023-06-14T03:13:18;100869.19;;;18.30
76583;BMP280;65462;52.148;7.940;2023-06-14T03:15:46;100866.84;;;18.25
76583;BMP280;65462;52.148;7.940;2023-06-14T03:18:11;100877.53;;;18.25
76583;BMP280;65462;52.148;7.940;2023-06-14T03:20:40;100867.19;;;18.20
76583;BMP280;65462;52.148;7.940;2023-06-14T03:23:06;100870.94;;;18.15
76583;BMP280;65462;52.148;7.940;2023-06-14T03:25:31;100883.97;;;18.17
76583;BMP280;65462;52.148;7.940;2023-06-14T03:28:01;100885.84;;;18.13
76583;BMP280;65462;52.148;7.940;2023-06-14T03:30:26;100888.84;;;18.08
76583;BMP280;65462;52.148;7.940;2023-06-14T03:32:51;100898.00;;;18.07
76583;BMP280;65462;52.148;7.940;2023-06-14T03:35:21;100898.00;;;18.07
76583;BMP280;65462;52.148;7.940;2023-06-14T03:37:47;100896.03;;;18.04
76583;BMP280;65462;52.148;7.940;2023-06-14T03:40:13;100895.66;;;18.02
76583;BMP280;65462;52.148;7.940;2023-06-14T03:42:39;100902.44;;;17.96
76583;BMP280;65462;52.148;7.940;2023-06-14T03:45:06;100897.09;;;17.96
76583;BMP280;65462;52.148;7.940;2023-06-14T03:47:34;100898.19;;;17.91
76583;BMP280;65462;52.148;7.940;2023-06-14T03:49:59;100904.66;;;17.90
76583;BMP280;65462;52.148;7.940;2023-06-14T03:52:26;100906.94;;;17.88
76583;BMP280;65462;52.148;7.940;2023-06-14T03:54:51;100904.22;;;17.85
76583;BMP280;65462;52.148;7.940;2023-06-14T03:57:17;100898.47;;;17.83
76583;BMP280;65462;52.148;7.940;2023-06-14T03:59:42;100911.84;;;17.83
76583;BMP280;65462;52.148;7.940;2023-06-14T04:02:08;100907.63;;;17.82
76583;BMP280;65462;52.148;7.940;2023-06-14T04:04:34;100909.19;;;17.83
76583;BMP280;65462;52.148;7.940;2023-06-14T04:07:00;100918.38;;;17.85
76583;BMP280;65462;52.148;7.940;2023-06-14T04:09:29;100914.91;;;17.85
76583;BMP280;65462;52.148;7.940;2023-06-14T04:11:55;100919.88;;;17.86
76583;BMP280;65462;52.148;7.940;2023-06-14T04:14:21;100921.41;;;17.84
76583;BMP280;65462;52.148;7.940;2023-06-14T04:16:47;100923.34;;;17.87
76583;BMP280;65462;52.148;7.940;2023-06-14T04:19:13;100932.13;;;17.87
76583;BMP280;65462;52.148;7.940;2023-06-14T04:21:38;100931.38;;;17.87
76583;BMP280;65462;52.148;7.940;2023-06-14T04:24:04;100934.81;;;17.87
76583;BMP280;65462;52.148;7.940;2023-06-14T04:26:29;100934.47;;;17.89
76583;BMP280;65462;52.148;7.940;2023-06-14T04:28:56;100933.00;;;17.95
76583;BMP280;65462;52.148;7.940;2023-06-14T04:31:22;100935.31;;;17.96
76583;BMP280;65462;52.148;7.940;2023-06-14T04:33:50;100939.56;;;18.01
76583;BMP280;65462;52.148;7.940;2023-06-14T04:36:18;100940.41;;;18.05
76583;BMP280;65462;52.148;7.940;2023-06-14T04:38:44;100946.19;;;18.10
76583;BMP280;65462;52.148;7.940;2023-06-14T04:41:10;100950.81;;;18.13
76583;BMP280;65462;52.148;7.940;2023-06-14T04:43:37;100952.03;;;18.19
76583;BMP280;65462;52.148;7.940;2023-06-14T04:46:05;100949.78;;;18.25
76583;BMP280;65462;52.148;7.940;2023-06-14T04:48:35;100956.41;;;18.31
76583;BMP280;65462;52.148;7.940;2023-06-14T04:51:00;100951.09;;;18.38
76583;BMP280;65462;52.148;7.940;2023-06-14T04:53:25;100959.94;;;18.42
76583;BMP280;65462;52.148;7.940;2023-06-14T04:55:54;100957.34;;;18.49
76583;BMP280;65462;52.148;7.940;2023-06-14T04:58:19;100953.97;;;18.56
76583;BMP280;65462;52.148;7.940;2023-06-14T05:00:45;100955.94;;;18.62
76583;BMP280;65462;52.148;7.940;2023-06-14T05:03:10;100959.06;;;18.68
76583;BMP280;65462;52.148;7.940;2023-06-14T05:05:39;100962.16;;;18.73
76583;BMP280;65462;52.148;7.940;2023-06-14T05:08:04;100961.47;;;18.80
76583;BMP280;65462;52.148;7.940;2023-06-14T05:10:30;100964.59;;;18.85
76583;BMP280;65462;52.148;7.940;2023-06-14T05:12:56;100977.69;;;18.94
76583;BMP280;65462;52.148;7.940;2023-06-14T05:15:21;100971.56;;;18.97
76583;BMP280;65462;52.148;7.940;2023-06-14T05:17:50;100969.31;;;19.02
76583;BMP280;65462;52.148;7.940;2023-06-14T05:20:20;100973.56;;;19.07
76583;BMP280;65462;52.148;7.940;2023-06-14T05:22:45;100968.25;;;19.10
76583;BMP280;65462;52.148;7.940;2023-06-14T05:25:10;100974.03;;;19.16
76583;BMP280;65462;52.148;7.940;2023-06-14T05:27:36;100971.38;;;19.19
76583;BMP280;65462;52.148;7.940;2023-06-14T05:30:02;100969.91;;;19.25
76583;BMP280;65462;52.148;7.940;2023-06-14T05:32:29;100968.00;;;19.29
76583;BMP280;65462;52.148;7.940;2023-06-14T05:34:54;100972.28;;;19.34
76583;BMP280;65462;52.148;7.940;2023-06-14T05:37:19;100987.22;;;19.38
76583;BMP280;65462;52.148;7.940;2023-06-14T05:39:45;100979.19;;;19.42
76583;BMP280;65462;52.148;7.940;2023-06-14T05:42:10;100979.97;;;19.43
76583;BMP280;65462;52.148;7.940;2023-06-14T05:44:36;100981.53;;;19.44
76583;BMP280;65462;52.148;7.940;2023-06-14T05:47:01;100983.09;;;19.48
76583;BMP280;65462;52.148;7.940;2023-06-14T05:49:27;100989.19;;;19.49
76583;BMP280;65462;52.148;7.940;2023-06-14T05:51:52;100999.19;;;19.52
76583;BMP280;65462;52.148;7.940;2023-06-14T05:54:17;100994.19;;;19.50
76583;BMP280;65462;52.148;7.940;2023-06-14T05:56:43;101001.13;;;19.55
76583;BMP280;65462;52.148;7.940;2023-06-14T05:59:08;101008.03;;;19.56
76583;BMP280;65462;52.148;7.940;2023-06-14T06:01:33;101008.81;;;19.56
76583;BMP280;65462;52.148;7.940;2023-06-14T06:04:02;101008.84;;;19.60
76583;BMP280;65462;52.148;7.940;2023-06-14T06:06:27;101007.34;;;19.66
76583;BMP280;65462;52.148;7.940;2023-06-14T06:08:52;101024.19;;;19.70
76583;BMP280;65462;52.148;7.940;2023-06-14T06:11:17;101026.13;;;19.73
76583;BMP280;65462;52.148;7.940;2023-06-14T06:13:43;101023.44;;;19.73
76583;BMP280;65462;52.148;7.940;2023-06-14T06:16:08;101033.44;;;19.76
76583;BMP280;65462;52.148;7.940;2023-06-14T06:18:33;101022.00;;;19.82
76583;BMP280;65462;52.148;7.940;2023-06-14T06:20:59;101023.91;;;19.89
76583;BMP280;65462;52.148;7.940;2023-06-14T06:23:24;101028.19;;;19.97
76583;BMP280;65462;52.148;7.940;2023-06-14T06:25:50;101027.47;;;20.03
76583;BMP280;65462;52.148;7.940;2023-06-14T06:28:15;101015.19;;;20.06
76583;BMP280;65462;52.148;7.940;2023-06-14T06:30:41;101026.00;;;20.16
76583;BMP280;65462;52.148;7.940;2023-06-14T06:33:06;101017.19;;;20.23
76583;BMP280;65462;52.148;7.940;2023-06-14T06:35:31;101012.63;;;20.30
76583;BMP280;65462;52.148;7.940;2023-06-14T06:37:58;101012.25;;;20.39
76583;BMP280;65462;52.148;7.940;2023-06-14T06:40:23;101019.94;;;20.48
76583;BMP280;65462;52.148;7.940;2023-06-14T06:42:48;101019.22;;;20.58
76583;BMP280;65462;52.148;7.940;2023-06-14T06:45:15;101019.63;;;20.67
76583;BMP280;65462;52.148;7.940;2023-06-14T06:47:40;101022.69;;;20.76
76583;BMP280;65462;52.148;7.940;2023-06-14T06:50:06;101025.41;;;20.86
76583;BMP280;65462;52.148;7.940;2023-06-14T06:52:32;101026.56;;;20.99
76583;BMP280;65462;52.148;7.940;2023-06-14T06:54:57;101039.25;;;21.13
76583;BMP280;65462;52.148;7.940;2023-06-14T06:57:23;101031.19;;;21.23
76583;BMP280;65462;52.148;7.940;2023-06-14T06:59:49;101030.03;;;21.38
76583;BMP280;65462;52.148;7.940;2023-06-14T07:02:14;101040.75;;;21.53
76583;BMP280;65462;52.148;7.940;2023-06-14T07:04:40;101039.56;;;21.68
76583;BMP280;65462;52.148;7.940;2023-06-14T07:07:06;101032.97;;;21.79
76583;BMP280;65462;52.148;7.940;2023-06-14T07:09:31;101042.97;;;21.89
76583;BMP280;65462;52.148;7.940;2023-06-14T07:11:56;101046.41;;;22.00
76583;BMP280;65462;52.148;7.940;2023-06-14T07:14:21;101053.66;;;22.10
76583;BMP280;65462;52.148;7.940;2023-06-14T07:16:48;101050.53;;;22.22
76583;BMP280;65462;52.148;7.940;2023-06-14T07:19:14;101055.81;;;22.36
76583;BMP280;65462;52.148;7.940;2023-06-14T07:21:40;101053.09;;;22.47
76583;BMP280;65462;52.148;7.940;2023-06-14T07:24:05;101054.53;;;22.62
76583;BMP280;65462;52.148;7.940;2023-06-14T07:26:31;101055.25;;;22.73
76583;BMP280;65462;52.148;7.940;2023-06-14T07:28:56;101057.84;;;22.87
76583;BMP280;65462;52.148;7.940;2023-06-14T07:31:22;101060.44;;;22.98
76583;BMP280;65462;52.148;7.940;2023-06-14T07:33:47;101059.22;;;23.09
76583;BMP280;65462;52.148;7.940;2023-06-14T07:36:12;101056.44;;;23.20
76583;BMP280;65462;52.148;7.940;2023-06-14T07:38:38;101063.59;;;23.33
76583;BMP280;65462;52.148;7.940;2023-06-14T07:41:05;101061.94;;;23.46
76583;BMP280;65462;52.148;7.940;2023-06-14T07:43:30;101058.28;;;23.63
76583;BMP280;65462;52.148;7.940;2023-06-14T07:45:56;101053.16;;;23.76
76583;BMP280;65462;52.148;7.940;2023-06-14T07:48:22;101061.81;;;23.91
76583;BMP280;65462;52.148;7.940;2023-06-14T07:50:47;101059.75;;;24.02
76583;BMP280;65462;52.148;7.940;2023-06-14T07:53:13;101061.16;;;24.13
76583;BMP280;65462;52.148;7.940;2023-06-14T07:55:38;101063.31;;;24.29
76583;BMP280;65462;52.148;7.940;2023-06-14T07:58:06;101058.09;;;24.41
76583;BMP280;65462;52.148;7.940;2023-06-14T08:00:32;101065.97;;;24.55
76583;BMP280;65462;52.148;7.940;2023-06-14T08:02:57;101070.44;;;24.65
76583;BMP280;65462;52.148;7.940;2023-06-14T08:05:27;101072.69;;;24.74
76583;BMP280;65462;52.148;7.940;2023-06-14T08:07:53;101071.34;;;24.82
76583;BMP280;65462;52.148;7.940;2023-06-14T08:10:19;101063.84;;;24.93
76583;BMP280;65462;52.148;7.940;2023-06-14T08:12:45;101076.06;;;25.01
76583;BMP280;65462;52.148;7.940;2023-06-14T08:15:10;101079.00;;;25.10
76583;BMP280;65462;52.148;7.940;2023-06-14T08:17:36;101075.75;;;25.19
76583;BMP280;65462;52.148;7.940;2023-06-14T08:20:02;101070.97;;;25.26
76583;BMP280;65462;52.148;7.940;2023-06-14T08:22:29;101074.34;;;25.34
76583;BMP280;65462;52.148;7.940;2023-06-14T08:24:58;101054.81;;;25.42
76583;BMP280;65462;52.148;7.940;2023-06-14T08:27:24;101076.72;;;25.51
76583;BMP280;65462;52.148;7.940;2023-06-14T08:29:49;101071.22;;;25.55
76583;BMP280;65462;52.148;7.940;2023-06-14T08:32:15;101069.56;;;25.61
76583;BMP280;65462;52.148;7.940;2023-06-14T08:34:40;101071.00;;;25.65
76583;BMP280;65462;52.148;7.940;2023-06-14T08:37:05;101077.91;;;25.70
76583;BMP280;65462;52.148;7.940;2023-06-14T08:39:31;101067.66;;;25.77
76583;BMP280;65462;52.148;7.940;2023-06-14T08:41:57;101069.13;;;25.82
76583;BMP280;65462;52.148;7.940;2023-06-14T08:44:23;101077.53;;;25.87
76583;BMP280;65462;52.148;7.940;2023-06-14T08:46:48;101078.56;;;25.93
76583;BMP280;65462;52.148;7.940;2023-06-14T08:49:16;101074.44;;;26.05
76583;BMP280;65462;52.148;7.940;2023-06-14T08:51:42;101069.97;;;26.14
76583;BMP280;65462;52.148;7.940;2023-06-14T08:54:09;101075.25;;;26.21
76583;BMP280;65462;52.148;7.940;2023-06-14T08:56:37;101076.28;;;26.27
76583;BMP280;65462;52.148;7.940;2023-06-14T08:59:03;101078.56;;;26.29
76583;BMP280;65462;52.148;7.940;2023-06-14T09:01:32;101082.03;;;26.29
76583;BMP280;65462;52.148;7.940;2023-06-14T09:03:59;101075.00;;;26.32
76583;BMP280;65462;52.148;7.940;2023-06-14T09:06:24;101080.78;;;26.34
76583;BMP280;65462;52.148;7.940;2023-06-14T09:08:50;101074.56;;;26.33
76583;BMP280;65462;52.148;7.940;2023-06-14T09:11:17;101072.22;;;26.35
76583;BMP280;65462;52.148;7.940;2023-06-14T09:13:45;101072.13;;;26.39
76583;BMP280;65462;52.148;7.940;2023-06-14T09:16:11;101068.56;;;26.42
76583;BMP280;65462;52.148;7.940;2023-06-14T09:18:38;101082.84;;;26.46
76583;BMP280;65462;52.148;7.940;2023-06-14T09:21:06;101081.13;;;26.52
76583;BMP280;65462;52.148;7.940;2023-06-14T09:23:35;101085.28;;;26.57
76583;BMP280;65462;52.148;7.940;2023-06-14T09:26:09;101087.50;;;26.62
76583;BMP280;65462;52.148;7.940;2023-06-14T09:28:35;101091.28;;;26.64
76583;BMP280;65462;52.148;7.940;2023-06-14T09:31:01;101088.56;;;26.64
76583;BMP280;65462;52.148;7.940;2023-06-14T09:33:26;101090.88;;;26.66
76583;BMP280;65462;52.148;7.940;2023-06-14T09:35:54;101086.22;;;26.66
76583;BMP280;65462;52.148;7.940;2023-06-14T09:38:19;101089.78;;;26.63
76583;BMP280;65462;52.148;7.940;2023-06-14T09:40:45;101092.06;;;26.65
76583;BMP280;65462;52.148;7.940;2023-06-14T09:43:11;101098.50;;;26.71
76583;BMP280;65462;52.148;7.940;2023-06-14T09:45:38;101093.41;;;26.73
76583;BMP280;65462;52.148;7.940;2023-06-14T09:48:06;101096.47;;;26.75
76583;BMP280;65462;52.148;7.940;2023-06-14T09:50:32;101091.72;;;26.79
76583;BMP280;65462;52.148;7.940;2023-06-14T09:53:02;101088.25;;;26.78
76583;BMP280;65462;52.148;7.940;2023-06-14T09:55:30;101086.19;;;26.82
76583;BMP280;65462;52.148;7.940;2023-06-14T09:57:56;101098.16;;;26.85
76583;BMP280;65462;52.148;7.940;2023-06-14T10:00:23;101095.78;;;26.87
76583;BMP280;65462;52.148;7.940;2023-06-14T10:02:54;101092.22;;;26.90
76583;BMP280;65462;52.148;7.940;2023-06-14T10:05:24;101091.00;;;26.91
76583;BMP280;65462;52.148;7.940;2023-06-14T10:08:05;101094.50;;;26.91
76583;BMP280;65462;52.148;7.940;2023-06-14T10:10:33;101088.22;;;26.94
76583;BMP280;65462;52.148;7.940;2023-06-14T10:12:58;101090.19;;;26.94
76583;BMP280;65462;52.148;7.940;2023-06-14T10:15:32;101097.91;;;26.95
76583;BMP280;65462;52.148;7.940;2023-06-14T10:18:28;101089.75;;;26.95
76583;BMP280;65462;52.148;7.940;2023-06-14T10:24:01;101083.56;;;26.95
76583;BMP280;65462;52.148;7.940;2023-06-14T10:26:28;101077.44;;;26.91
76583;BMP280;65462;52.148;7.940;2023-06-14T10:28:58;101089.50;;;26.90
76583;BMP280;65462;52.148;7.940;2023-06-14T10:31:43;101080.63;;;26.89
76583;BMP280;65462;52.148;7.940;2023-06-14T10:34:09;101091.00;;;26.91
76583;BMP280;65462;52.148;7.940;2023-06-14T10:36:34;101086.78;;;26.90
76583;BMP280;65462;52.148;7.940;2023-06-14T10:39:15;101085.94;;;26.93
76583;BMP280;65462;52.148;7.940;2023-06-14T10:41:41;101085.06;;;26.96
76583;BMP280;65462;52.148;7.940;2023-06-14T10:46:38;101086.19;;;26.98
76583;BMP280;65462;52.148;7.940;2023-06-14T10:49:03;101085.75;;;27.00
76583;BMP280;65462;52.148;7.940;2023-06-14T10:51:39;101087.97;;;27.05
76583;BMP280;65462;52.148;7.940;2023-06-14T10:54:12;101086.66;;;27.09
76583;BMP280;65462;52.148;7.940;2023-06-14T10:56:48;101090.81;;;27.14
76583;BMP280;65462;52.148;7.940;2023-06-14T10:59:14;101086.16;;;27.14
76583;BMP280;65462;52.148;7.940;2023-06-14T11:02:20;101082.25;;;27.15
76583;BMP280;65462;52.148;7.940;2023-06-14T11:04:52;101078.31;;;27.16
76583;BMP280;65462;52.148;7.940;2023-06-14T11:10:13;101076.28;;;27.20
76583;BMP280;65462;52.148;7.940;2023-06-14T11:12:47;101072.81;;;27.20
76583;BMP280;65462;52.148;7.940;2023-06-14T11:15:13;101070.44;;;27.22
76583;BMP280;65462;52.148;7.940;2023-06-14T11:17:38;101068.81;;;27.24
76583;BMP280;65462;52.148;7.940;2023-06-14T11:20:08;101061.75;;;27.27
76583;BMP280;65462;52.148;7.940;2023-06-14T11:22:41;101049.69;;;27.28
76583;BMP280;65462;52.148;7.940;2023-06-14T11:25:11;101062.44;;;27.31
76583;BMP280;65462;52.148;7.940;2023-06-14T11:27:36;101072.75;;;27.36
76583;BMP280;65462;52.148;7.940;2023-06-14T11:30:02;101064.91;;;27.38
76583;BMP280;65462;52.148;7.940;2023-06-14T11:32:27;101064.50;;;27.39
76583;BMP280;65462;52.148;7.940;2023-06-14T11:34:53;101058.63;;;27.41
76583;BMP280;65462;52.148;7.940;2023-06-14T11:37:19;101053.56;;;27.43
76583;BMP280;65462;52.148;7.940;2023-06-14T11:39:44;101054.31;;;27.43
76583;BMP280;65462;52.148;7.940;2023-06-14T11:42:16;101055.81;;;27.44
76583;BMP280;65462;52.148;7.940;2023-06-14T11:44:41;101055.41;;;27.46
76583;BMP280;65462;52.148;7.940;2023-06-14T11:47:06;101041.81;;;27.46
76583;BMP280;65462;52.148;7.940;2023-06-14T11:49:35;101058.44;;;27.48
76583;BMP280;65462;52.148;7.940;2023-06-14T11:52:01;101058.78;;;27.50
76583;BMP280;65462;52.148;7.940;2023-06-14T11:54:26;101045.19;;;27.50
76583;BMP280;65462;52.148;7.940;2023-06-14T11:56:52;101055.31;;;27.49
76583;BMP280;65462;52.148;7.940;2023-06-14T11:59:17;101051.75;;;27.52
76583;BMP280;65462;52.148;7.940;2023-06-14T12:01:43;101054.34;;;27.56
76583;BMP280;65462;52.148;7.940;2023-06-14T12:04:08;101054.66;;;27.58
76583;BMP280;65462;52.148;7.940;2023-06-14T12:06:33;101055.53;;;27.55
76583;BMP280;65462;52.148;7.940;2023-06-14T12:09:05;101048.56;;;27.54
76583;BMP280;65462;52.148;7.940;2023-06-14T12:11:33;101055.53;;;27.55
76583;BMP280;65462;52.148;7.940;2023-06-14T12:13:59;101064.47;;;27.55
76583;BMP280;65462;52.148;7.940;2023-06-14T12:16:30;101066.41;;;27.55
76583;BMP280;65462;52.148;7.940;2023-06-14T12:19:00;101055.84;;;27.57
76583;BMP280;65462;52.148;7.940;2023-06-14T12:21:26;101050.41;;;27.57
76583;BMP280;65462;52.148;7.940;2023-06-14T12:23:53;101056.22;;;27.59
76583;BMP280;65462;52.148;7.940;2023-06-14T12:26:19;101045.47;;;27.68
76583;BMP280;65462;52.148;7.940;2023-06-14T12:28:46;101047.94;;;27.75
76583;BMP280;65462;52.148;7.940;2023-06-14T12:31:13;101036.19;;;27.78
76583;BMP280;65462;52.148;7.940;2023-06-14T12:33:39;101041.44;;;27.85
76583;BMP280;65462;52.148;7.940;2023-06-14T12:36:09;101035.66;;;27.95
76583;BMP280;65462;52.148;7.940;2023-06-14T12:38:36;101039.22;;;28.05
76583;BMP280;65462;52.148;7.940;2023-06-14T12:41:01;101041.44;;;28.10
76583;BMP280;65462;52.148;7.940;2023-06-14T12:43:27;101032.06;;;28.11
76583;BMP280;65462;52.148;7.940;2023-06-14T12:45:52;101048.81;;;28.22
76583;BMP280;65462;52.148;7.940;2023-06-14T12:48:17;101041.97;;;28.30
76583;BMP280;65462;52.148;7.940;2023-06-14T12:50:43;101036.72;;;28.36
76583;BMP280;65462;52.148;7.940;2023-06-14T12:53:08;101049.63;;;28.44
76583;BMP280;65462;52.148;7.940;2023-06-14T12:55:33;101043.53;;;28.53
76583;BMP280;65462;52.148;7.940;2023-06-14T12:57:59;101045.59;;;28.61
76583;BMP280;65462;52.148;7.940;2023-06-14T13:00:24;101052.94;;;28.73
76583;BMP280;65462;52.148;7.940;2023-06-14T13:02:51;101041.81;;;28.80
76583;BMP280;65462;52.148;7.940;2023-06-14T13:05:17;101061.06;;;28.86
76583;BMP280;65462;52.148;7.940;2023-06-14T13:07:42;101050.03;;;28.89
76583;BMP280;65462;52.148;7.940;2023-06-14T13:10:07;101047.66;;;28.91
76583;BMP280;65462;52.148;7.940;2023-06-14T13:12:33;101055.56;;;28.98
76583;BMP280;65462;52.148;7.940;2023-06-14T13:14:58;101049.22;;;29.01
76583;BMP280;65462;52.148;7.940;2023-06-14T13:17:23;101060.78;;;29.05
76583;BMP280;65462;52.148;7.940;2023-06-14T13:19:48;101058.78;;;29.06
76583;BMP280;65462;52.148;7.940;2023-06-14T13:22:14;101058.50;;;29.04
76583;BMP280;65462;52.148;7.940;2023-06-14T13:24:39;101043.03;;;29.01
76583;BMP280;65462;52.148;7.940;2023-06-14T13:27:04;101062.53;;;28.99
76583;BMP280;65462;52.148;7.940;2023-06-14T13:29:30;101053.94;;;29.01
76583;BMP280;65462;52.148;7.940;2023-06-14T13:31:56;101059.81;;;28.99
76583;BMP280;65462;52.148;7.940;2023-06-14T13:34:22;101059.63;;;28.94
76583;BMP280;65462;52.148;7.940;2023-06-14T13:36:49;101051.22;;;28.88
76583;BMP280;65462;52.148;7.940;2023-06-14T13:39:14;101058.81;;;28.84
76583;BMP280;65462;52.148;7.940;2023-06-14T13:41:40;101054.03;;;28.76
76583;BMP280;65462;52.148;7.940;2023-06-14T13:44:05;101056.22;;;28.68
76583;BMP280;65462;52.148;7.940;2023-06-14T13:46:31;101052.31;;;28.57
76583;BMP280;65462;52.148;7.940;2023-06-14T13:48:56;101043.31;;;28.47
76583;BMP280;65462;52.148;7.940;2023-06-14T13:51:23;101054.00;;;28.42
76583;BMP280;65462;52.148;7.940;2023-06-14T13:53:48;101039.00;;;28.37
76583;BMP280;65462;52.148;7.940;2023-06-14T13:56:14;101047.50;;;28.39
76583;BMP280;65462;52.148;7.940;2023-06-14T13:58:39;101045.66;;;28.36
76583;BMP280;65462;52.148;7.940;2023-06-14T14:01:05;101037.59;;;28.33